Primos-Secane, Pennsylvania
Current Conditions -  °F | °C
As of 2:54 AM on Saturday 29 Nov 2014 (Local Time) from KPHL Reporting Station
Broken Clouds Broken Clouds  
Wind Chill: 23°   Ceiling: 12000
Heat Index: 28°   Visibility: 10mi
Dew Point: 18°   Wind: 5mph
Humidity: 66%   Direction: 320°NW
Pressure: 30.33"   Gusts: NA
Location:  39.9228°N, 75.2984°W
Report Text: KPHL 290754Z 32004KT 10SM BKN120 M02/M08 A3033 RMK AO2 SLP271 T10221078 $
Loading
Personal Weather Stations






























Interactive Weather Map New forecast layout! Learn more

10-Day Weather Forecast

Advertisements
Track Severe Weather on mobile